sensor_id;sensor_type;location;lat;lon;timestamp;temperature;humidity
37289;DHT22;23174;49.462;11.000;2022-08-27T00:01:59;20.40;99.90
37289;DHT22;23174;49.462;11.000;2022-08-27T00:04:00;20.40;99.90
37289;DHT22;23174;49.462;11.000;2022-08-27T00:06:01;20.40;99.90
37289;DHT22;23174;49.462;11.000;2022-08-27T00:08:04;20.40;99.90
37289;DHT22;23174;49.462;11.000;2022-08-27T00:10:05;20.50;99.90
37289;DHT22;23174;49.462;11.000;2022-08-27T00:12:07;20.40;99.90
37289;DHT22;23174;49.462;11.000;2022-08-27T00:14:08;20.30;99.90
37289;DHT22;23174;49.462;11.000;2022-08-27T00:16:10;20.40;99.90
37289;DHT22;23174;49.462;11.000;2022-08-27T00:18:11;20.40;99.90
37289;DHT22;23174;49.462;11.000;2022-08-27T00:20:15;20.40;99.90
37289;DHT22;23174;49.462;11.000;2022-08-27T00:22:17;20.40;99.90
37289;DHT22;23174;49.462;11.000;2022-08-27T00:24:17;20.40;99.90
37289;DHT22;23174;49.462;11.000;2022-08-27T00:26:18;20.30;99.90
37289;DHT22;23174;49.462;11.000;2022-08-27T00:28:19;20.30;99.90
37289;DHT22;23174;49.462;11.000;2022-08-27T00:30:21;20.50;99.90
37289;DHT22;23174;49.462;11.000;2022-08-27T00:32:22;20.30;99.90
37289;DHT22;23174;49.462;11.000;2022-08-27T00:34:22;20.40;99.90
37289;DHT22;23174;49.462;11.000;2022-08-27T00:36:23;20.30;99.90
37289;DHT22;23174;49.462;11.000;2022-08-27T00:38:24;20.30;99.90
37289;DHT22;23174;49.462;11.000;2022-08-27T00:40:25;20.20;99.90
37289;DHT22;23174;49.462;11.000;2022-08-27T00:42:26;20.00;99.90
37289;DHT22;23174;49.462;11.000;2022-08-27T00:44:27;19.90;99.90
37289;DHT22;23174;49.462;11.000;2022-08-27T00:46:47;19.90;99.90
37289;DHT22;23174;49.462;11.000;2022-08-27T00:48:51;19.90;99.90
37289;DHT22;23174;49.462;11.000;2022-08-27T00:50:54;19.90;99.90
37289;DHT22;23174;49.462;11.000;2022-08-27T00:52:58;20.00;99.90
37289;DHT22;23174;49.462;11.000;2022-08-27T00:55:11;20.10;99.90
37289;DHT22;23174;49.462;11.000;2022-08-27T00:57:12;20.20;99.90
37289;DHT22;23174;49.462;11.000;2022-08-27T00:59:15;20.20;99.90
37289;DHT22;23174;49.462;11.000;2022-08-27T01:01:20;20.20;99.90
37289;DHT22;23174;49.462;11.000;2022-08-27T01:03:21;20.20;99.90
37289;DHT22;23174;49.462;11.000;2022-08-27T01:05:22;20.10;99.90
37289;DHT22;23174;49.462;11.000;2022-08-27T01:07:27;20.10;99.90
37289;DHT22;23174;49.462;11.000;2022-08-27T01:09:28;20.20;99.90
37289;DHT22;23174;49.462;11.000;2022-08-27T01:11:30;20.20;99.90
37289;DHT22;23174;49.462;11.000;2022-08-27T01:13:32;20.10;99.90
37289;DHT22;23174;49.462;11.000;2022-08-27T01:15:33;20.20;99.90
37289;DHT22;23174;49.462;11.000;2022-08-27T01:17:36;20.30;99.90
37289;DHT22;23174;49.462;11.000;2022-08-27T01:21:54;20.10;99.90
37289;DHT22;23174;49.462;11.000;2022-08-27T01:26:20;20.00;99.90
37289;DHT22;23174;49.462;11.000;2022-08-27T01:28:21;19.90;99.90
37289;DHT22;23174;49.462;11.000;2022-08-27T01:30:22;19.80;99.90
37289;DHT22;23174;49.462;11.000;2022-08-27T01:32:26;19.70;99.90
37289;DHT22;23174;49.462;11.000;2022-08-27T01:34:27;19.70;99.90
37289;DHT22;23174;49.462;11.000;2022-08-27T01:36:28;19.70;99.90
37289;DHT22;23174;49.462;11.000;2022-08-27T01:38:29;19.70;99.90
37289;DHT22;23174;49.462;11.000;2022-08-27T01:40:30;19.70;99.90
37289;DHT22;23174;49.462;11.000;2022-08-27T01:42:34;19.60;99.90
37289;DHT22;23174;49.462;11.000;2022-08-27T01:45:09;19.60;99.90
37289;DHT22;23174;49.462;11.000;2022-08-27T01:47:10;19.60;99.90
37289;DHT22;23174;49.462;11.000;2022-08-27T01:49:11;19.60;99.90
37289;DHT22;23174;49.462;11.000;2022-08-27T01:51:12;19.50;99.90
37289;DHT22;23174;49.462;11.000;2022-08-27T01:53:22;19.50;99.90
37289;DHT22;23174;49.462;11.000;2022-08-27T01:55:25;19.50;99.90
37289;DHT22;23174;49.462;11.000;2022-08-27T01:57:26;19.50;99.90
37289;DHT22;23174;49.462;11.000;2022-08-27T01:59:27;19.60;99.90
37289;DHT22;23174;49.462;11.000;2022-08-27T02:01:27;19.50;99.90
37289;DHT22;23174;49.462;11.000;2022-08-27T02:03:28;19.60;99.90
37289;DHT22;23174;49.462;11.000;2022-08-27T02:05:29;19.50;99.90
37289;DHT22;23174;49.462;11.000;2022-08-27T02:07:29;19.50;99.90
37289;DHT22;23174;49.462;11.000;2022-08-27T02:09:30;19.50;99.90
37289;DHT22;23174;49.462;11.000;2022-08-27T02:11:31;19.50;99.90
37289;DHT22;23174;49.462;11.000;2022-08-27T02:13:31;19.50;99.90
37289;DHT22;23174;49.462;11.000;2022-08-27T02:15:33;19.50;99.90
37289;DHT22;23174;49.462;11.000;2022-08-27T02:17:34;19.50;99.90
37289;DHT22;23174;49.462;11.000;2022-08-27T02:19:34;19.50;99.90
37289;DHT22;23174;49.462;11.000;2022-08-27T02:21:35;19.50;99.90
37289;DHT22;23174;49.462;11.000;2022-08-27T02:23:35;19.60;99.90
37289;DHT22;23174;49.462;11.000;2022-08-27T02:25:36;19.70;99.90
37289;DHT22;23174;49.462;11.000;2022-08-27T02:27:37;19.60;99.90
37289;DHT22;23174;49.462;11.000;2022-08-27T02:29:37;19.60;99.90
37289;DHT22;23174;49.462;11.000;2022-08-27T02:31:38;19.60;99.90
37289;DHT22;23174;49.462;11.000;2022-08-27T02:33:41;19.60;99.90
37289;DHT22;23174;49.462;11.000;2022-08-27T02:35:41;19.60;99.90
37289;DHT22;23174;49.462;11.000;2022-08-27T02:37:44;19.50;99.90
37289;DHT22;23174;49.462;11.000;2022-08-27T02:39:45;19.50;99.90
37289;DHT22;23174;49.462;11.000;2022-08-27T02:41:46;19.60;99.90
37289;DHT22;23174;49.462;11.000;2022-08-27T02:43:47;19.80;99.90
37289;DHT22;23174;49.462;11.000;2022-08-27T02:45:48;19.80;99.90
37289;DHT22;23174;49.462;11.000;2022-08-27T02:47:50;19.70;99.90
37289;DHT22;23174;49.462;11.000;2022-08-27T02:49:50;19.70;99.90
37289;DHT22;23174;49.462;11.000;2022-08-27T02:51:55;19.60;99.90
37289;DHT22;23174;49.462;11.000;2022-08-27T02:53:56;19.60;99.90
37289;DHT22;23174;49.462;11.000;2022-08-27T02:55:57;19.60;99.90
37289;DHT22;23174;49.462;11.000;2022-08-27T02:57:58;19.60;99.90
37289;DHT22;23174;49.462;11.000;2022-08-27T02:59:58;19.60;99.90
37289;DHT22;23174;49.462;11.000;2022-08-27T03:01:59;19.60;99.90
37289;DHT22;23174;49.462;11.000;2022-08-27T03:04:00;19.60;99.90
37289;DHT22;23174;49.462;11.000;2022-08-27T03:06:01;19.60;99.90
37289;DHT22;23174;49.462;11.000;2022-08-27T03:08:03;19.60;99.90
37289;DHT22;23174;49.462;11.000;2022-08-27T03:10:05;19.60;99.90
37289;DHT22;23174;49.462;11.000;2022-08-27T03:12:06;19.50;99.90
37289;DHT22;23174;49.462;11.000;2022-08-27T03:14:07;19.50;99.90
37289;DHT22;23174;49.462;11.000;2022-08-27T03:16:08;19.60;99.90
37289;DHT22;23174;49.462;11.000;2022-08-27T03:18:09;19.50;99.90
37289;DHT22;23174;49.462;11.000;2022-08-27T03:20:18;19.50;99.90
37289;DHT22;23174;49.462;11.000;2022-08-27T03:22:19;19.50;99.90
37289;DHT22;23174;49.462;11.000;2022-08-27T03:24:20;19.50;99.90
37289;DHT22;23174;49.462;11.000;2022-08-27T03:26:21;19.50;99.90
37289;DHT22;23174;49.462;11.000;2022-08-27T03:28:23;19.50;99.90
37289;DHT22;23174;49.462;11.000;2022-08-27T03:30:25;19.50;99.90
37289;DHT22;23174;49.462;11.000;2022-08-27T03:32:25;19.50;99.90
37289;DHT22;23174;49.462;11.000;2022-08-27T03:34:26;19.50;99.90
37289;DHT22;23174;49.462;11.000;2022-08-27T03:36:29;19.50;99.90
37289;DHT22;23174;49.462;11.000;2022-08-27T03:38:29;19.50;99.90
37289;DHT22;23174;49.462;11.000;2022-08-27T03:40:30;19.50;99.90
37289;DHT22;23174;49.462;11.000;2022-08-27T03:42:31;19.50;99.90
37289;DHT22;23174;49.462;11.000;2022-08-27T03:44:31;19.50;99.90
37289;DHT22;23174;49.462;11.000;2022-08-27T03:46:32;19.50;99.90
37289;DHT22;23174;49.462;11.000;2022-08-27T03:48:34;19.50;99.90
37289;DHT22;23174;49.462;11.000;2022-08-27T03:50:37;19.50;99.90
37289;DHT22;23174;49.462;11.000;2022-08-27T03:52:38;19.50;99.90
37289;DHT22;23174;49.462;11.000;2022-08-27T03:54:39;19.50;99.90
37289;DHT22;23174;49.462;11.000;2022-08-27T03:56:39;19.60;99.90
37289;DHT22;23174;49.462;11.000;2022-08-27T03:58:41;19.50;99.90
37289;DHT22;23174;49.462;11.000;2022-08-27T04:00:41;19.50;99.90
37289;DHT22;23174;49.462;11.000;2022-08-27T04:02:42;19.60;99.90
37289;DHT22;23174;49.462;11.000;2022-08-27T04:04:43;19.60;99.90
37289;DHT22;23174;49.462;11.000;2022-08-27T04:06:44;19.60;99.90
37289;DHT22;23174;49.462;11.000;2022-08-27T04:08:45;19.60;99.90
37289;DHT22;23174;49.462;11.000;2022-08-27T04:10:45;19.50;99.90
37289;DHT22;23174;49.462;11.000;2022-08-27T04:12:46;19.60;99.90
37289;DHT22;23174;49.462;11.000;2022-08-27T04:14:47;19.60;99.90
37289;DHT22;23174;49.462;11.000;2022-08-27T04:16:47;19.60;99.90
37289;DHT22;23174;49.462;11.000;2022-08-27T04:18:48;19.60;99.90
37289;DHT22;23174;49.462;11.000;2022-08-27T04:20:50;19.60;99.90
37289;DHT22;23174;49.462;11.000;2022-08-27T04:22:52;19.60;99.90
37289;DHT22;23174;49.462;11.000;2022-08-27T04:24:53;19.60;99.90
37289;DHT22;23174;49.462;11.000;2022-08-27T04:26:54;19.50;99.90
37289;DHT22;23174;49.462;11.000;2022-08-27T04:28:56;19.60;99.90
37289;DHT22;23174;49.462;11.000;2022-08-27T04:30:57;19.60;99.90
37289;DHT22;23174;49.462;11.000;2022-08-27T04:32:58;19.50;99.90
37289;DHT22;23174;49.462;11.000;2022-08-27T04:34:59;19.60;99.90
37289;DHT22;23174;49.462;11.000;2022-08-27T04:37:00;19.60;99.90
37289;DHT22;23174;49.462;11.000;2022-08-27T04:39:01;19.80;99.90
37289;DHT22;23174;49.462;11.000;2022-08-27T04:41:07;19.90;99.90
37289;DHT22;23174;49.462;11.000;2022-08-27T04:43:21;20.00;99.90
37289;DHT22;23174;49.462;11.000;2022-08-27T04:45:22;19.90;99.90
37289;DHT22;23174;49.462;11.000;2022-08-27T04:47:23;19.80;99.90
37289;DHT22;23174;49.462;11.000;2022-08-27T04:49:24;19.80;99.90
37289;DHT22;23174;49.462;11.000;2022-08-27T04:51:26;19.90;99.90
37289;DHT22;23174;49.462;11.000;2022-08-27T04:53:27;19.90;99.90
37289;DHT22;23174;49.462;11.000;2022-08-27T04:55:28;19.70;99.90
37289;DHT22;23174;49.462;11.000;2022-08-27T04:57:28;19.70;99.90
37289;DHT22;23174;49.462;11.000;2022-08-27T04:59:30;19.70;99.90
37289;DHT22;23174;49.462;11.000;2022-08-27T05:01:30;19.60;99.90
37289;DHT22;23174;49.462;11.000;2022-08-27T05:03:31;19.60;99.90
37289;DHT22;23174;49.462;11.000;2022-08-27T05:05:32;19.60;99.90
37289;DHT22;23174;49.462;11.000;2022-08-27T05:07:32;19.60;99.90
37289;DHT22;23174;49.462;11.000;2022-08-27T05:09:33;19.60;99.90
37289;DHT22;23174;49.462;11.000;2022-08-27T05:11:34;19.50;99.90
37289;DHT22;23174;49.462;11.000;2022-08-27T05:13:35;19.50;99.90
37289;DHT22;23174;49.462;11.000;2022-08-27T05:15:38;19.50;99.90
37289;DHT22;23174;49.462;11.000;2022-08-27T05:17:38;19.50;99.90
37289;DHT22;23174;49.462;11.000;2022-08-27T05:19:39;19.50;99.90
37289;DHT22;23174;49.462;11.000;2022-08-27T05:21:45;19.30;99.90
37289;DHT22;23174;49.462;11.000;2022-08-27T05:23:46;19.30;99.90
37289;DHT22;23174;49.462;11.000;2022-08-27T05:25:48;19.30;99.90
37289;DHT22;23174;49.462;11.000;2022-08-27T05:27:49;19.20;99.90
37289;DHT22;23174;49.462;11.000;2022-08-27T05:29:50;19.10;99.90
37289;DHT22;23174;49.462;11.000;2022-08-27T05:31:51;19.10;99.90
37289;DHT22;23174;49.462;11.000;2022-08-27T05:33:51;19.10;99.90
37289;DHT22;23174;49.462;11.000;2022-08-27T05:35:56;19.10;99.90
37289;DHT22;23174;49.462;11.000;2022-08-27T05:37:57;19.20;99.90
37289;DHT22;23174;49.462;11.000;2022-08-27T05:40:00;19.10;99.90
37289;DHT22;23174;49.462;11.000;2022-08-27T05:42:00;19.10;99.90
37289;DHT22;23174;49.462;11.000;2022-08-27T05:44:05;19.10;99.90
37289;DHT22;23174;49.462;11.000;2022-08-27T05:46:09;19.20;99.90
37289;DHT22;23174;49.462;11.000;2022-08-27T05:48:09;19.20;99.90
37289;DHT22;23174;49.462;11.000;2022-08-27T05:50:11;19.20;99.90
37289;DHT22;23174;49.462;11.000;2022-08-27T05:52:11;19.20;99.90
37289;DHT22;23174;49.462;11.000;2022-08-27T05:54:12;19.30;99.90
37289;DHT22;23174;49.462;11.000;2022-08-27T05:56:20;19.30;99.90
37289;DHT22;23174;49.462;11.000;2022-08-27T05:58:21;19.30;99.90
37289;DHT22;23174;49.462;11.000;2022-08-27T06:00:41;19.30;99.90
37289;DHT22;23174;49.462;11.000;2022-08-27T06:03:00;19.50;99.90
37289;DHT22;23174;49.462;11.000;2022-08-27T06:05:00;19.30;99.90
37289;DHT22;23174;49.462;11.000;2022-08-27T06:07:02;19.40;99.90
37289;DHT22;23174;49.462;11.000;2022-08-27T06:09:04;19.50;99.90
37289;DHT22;23174;49.462;11.000;2022-08-27T06:11:06;19.30;99.90
37289;DHT22;23174;49.462;11.000;2022-08-27T06:13:07;19.40;99.90
37289;DHT22;23174;49.462;11.000;2022-08-27T06:15:08;19.30;99.90
37289;DHT22;23174;49.462;11.000;2022-08-27T06:17:09;19.20;99.90
37289;DHT22;23174;49.462;11.000;2022-08-27T06:19:10;19.50;99.90
37289;DHT22;23174;49.462;11.000;2022-08-27T06:21:12;19.30;99.90
37289;DHT22;23174;49.462;11.000;2022-08-27T06:23:15;19.30;99.90
37289;DHT22;23174;49.462;11.000;2022-08-27T06:25:16;19.30;99.90
37289;DHT22;23174;49.462;11.000;2022-08-27T06:27:17;19.30;99.90
37289;DHT22;23174;49.462;11.000;2022-08-27T06:29:19;19.30;99.90
37289;DHT22;23174;49.462;11.000;2022-08-27T06:31:26;19.50;99.90
37289;DHT22;23174;49.462;11.000;2022-08-27T06:33:26;19.60;99.90
37289;DHT22;23174;49.462;11.000;2022-08-27T06:35:27;19.50;99.90
37289;DHT22;23174;49.462;11.000;2022-08-27T06:37:28;19.60;99.90
37289;DHT22;23174;49.462;11.000;2022-08-27T06:39:30;19.60;99.90
37289;DHT22;23174;49.462;11.000;2022-08-27T06:41:32;19.70;99.90
37289;DHT22;23174;49.462;11.000;2022-08-27T06:43:35;19.70;99.90
37289;DHT22;23174;49.462;11.000;2022-08-27T06:45:37;19.80;99.90
37289;DHT22;23174;49.462;11.000;2022-08-27T06:47:38;19.70;99.90
37289;DHT22;23174;49.462;11.000;2022-08-27T06:49:39;19.90;99.90
37289;DHT22;23174;49.462;11.000;2022-08-27T06:51:44;19.80;99.90
37289;DHT22;23174;49.462;11.000;2022-08-27T06:54:02;19.80;99.90
37289;DHT22;23174;49.462;11.000;2022-08-27T06:56:04;19.70;99.90
37289;DHT22;23174;49.462;11.000;2022-08-27T06:58:16;19.70;99.90
37289;DHT22;23174;49.462;11.000;2022-08-27T07:00:24;19.70;99.90
37289;DHT22;23174;49.462;11.000;2022-08-27T07:06:03;19.90;99.90
37289;DHT22;23174;49.462;11.000;2022-08-27T07:08:08;19.90;99.90
37289;DHT22;23174;49.462;11.000;2022-08-27T07:10:10;19.80;99.90
37289;DHT22;23174;49.462;11.000;2022-08-27T07:12:11;19.90;99.90
37289;DHT22;23174;49.462;11.000;2022-08-27T07:14:11;19.90;99.90
37289;DHT22;23174;49.462;11.000;2022-08-27T07:16:14;20.00;99.90
37289;DHT22;23174;49.462;11.000;2022-08-27T07:18:15;19.90;99.90
37289;DHT22;23174;49.462;11.000;2022-08-27T07:20:17;19.90;99.90
37289;DHT22;23174;49.462;11.000;2022-08-27T07:22:18;20.00;99.90
37289;DHT22;23174;49.462;11.000;2022-08-27T07:24:21;19.90;99.90
37289;DHT22;23174;49.462;11.000;2022-08-27T07:26:40;19.90;99.90
37289;DHT22;23174;49.462;11.000;2022-08-27T07:31:47;20.00;99.90
37289;DHT22;23174;49.462;11.000;2022-08-27T07:33:48;20.20;99.90
37289;DHT22;23174;49.462;11.000;2022-08-27T07:35:49;20.20;99.90
37289;DHT22;23174;49.462;11.000;2022-08-27T07:37:54;20.30;99.90
37289;DHT22;23174;49.462;11.000;2022-08-27T07:39:55;20.20;99.90
37289;DHT22;23174;49.462;11.000;2022-08-27T07:41:59;20.40;99.90
37289;DHT22;23174;49.462;11.000;2022-08-27T07:44:18;20.30;99.90
37289;DHT22;23174;49.462;11.000;2022-08-27T07:46:28;20.30;99.90
37289;DHT22;23174;49.462;11.000;2022-08-27T07:48:33;20.10;99.90
37289;DHT22;23174;49.462;11.000;2022-08-27T07:50:48;20.20;99.90
37289;DHT22;23174;49.462;11.000;2022-08-27T07:55:46;20.10;99.90
37289;DHT22;23174;49.462;11.000;2022-08-27T07:57:53;20.30;99.90
37289;DHT22;23174;49.462;11.000;2022-08-27T08:00:10;20.20;99.90
37289;DHT22;23174;49.462;11.000;2022-08-27T08:02:14;20.30;99.90
37289;DHT22;23174;49.462;11.000;2022-08-27T08:04:55;20.40;99.90
37289;DHT22;23174;49.462;11.000;2022-08-27T08:13:11;20.30;99.90
37289;DHT22;23174;49.462;11.000;2022-08-27T08:21:23;20.30;99.90
37289;DHT22;23174;49.462;11.000;2022-08-27T08:23:24;20.40;99.90
37289;DHT22;23174;49.462;11.000;2022-08-27T08:25:28;20.40;99.90
37289;DHT22;23174;49.462;11.000;2022-08-27T08:27:29;20.30;99.90
37289;DHT22;23174;49.462;11.000;2022-08-27T08:29:31;20.30;99.90
37289;DHT22;23174;49.462;11.000;2022-08-27T08:31:32;20.30;99.90
37289;DHT22;23174;49.462;11.000;2022-08-27T08:33:33;20.40;99.90
37289;DHT22;23174;49.462;11.000;2022-08-27T08:35:37;20.30;99.90
37289;DHT22;23174;49.462;11.000;2022-08-27T08:37:38;20.30;99.90
37289;DHT22;23174;49.462;11.000;2022-08-27T08:39:38;20.30;99.90
37289;DHT22;23174;49.462;11.000;2022-08-27T08:41:43;20.40;99.90
37289;DHT22;23174;49.462;11.000;2022-08-27T08:43:45;20.40;99.90
37289;DHT22;23174;49.462;11.000;2022-08-27T08:45:51;20.50;99.90
37289;DHT22;23174;49.462;11.000;2022-08-27T08:48:19;20.50;99.90
37289;DHT22;23174;49.462;11.000;2022-08-27T08:50:26;20.50;99.90
37289;DHT22;23174;49.462;11.000;2022-08-27T08:52:59;20.40;99.90
37289;DHT22;23174;49.462;11.000;2022-08-27T08:55:26;20.40;99.90
37289;DHT22;23174;49.462;11.000;2022-08-27T08:57:34;20.50;99.90
37289;DHT22;23174;49.462;11.000;2022-08-27T08:59:42;20.80;99.90
37289;DHT22;23174;49.462;11.000;2022-08-27T09:01:45;20.80;99.90
37289;DHT22;23174;49.462;11.000;2022-08-27T09:03:54;20.80;99.90
37289;DHT22;23174;49.462;11.000;2022-08-27T09:06:10;20.80;99.90
37289;DHT22;23174;49.462;11.000;2022-08-27T09:08:33;20.60;99.90
37289;DHT22;23174;49.462;11.000;2022-08-27T09:13:27;20.80;99.90
37289;DHT22;23174;49.462;11.000;2022-08-27T09:15:33;20.90;99.90
37289;DHT22;23174;49.462;11.000;2022-08-27T09:17:40;20.80;99.90
37289;DHT22;23174;49.462;11.000;2022-08-27T09:19:52;20.90;99.90
37289;DHT22;23174;49.462;11.000;2022-08-27T09:22:15;20.90;99.90
37289;DHT22;23174;49.462;11.000;2022-08-27T09:24:45;21.00;99.90
37289;DHT22;23174;49.462;11.000;2022-08-27T09:26:52;21.10;99.90
37289;DHT22;23174;49.462;11.000;2022-08-27T09:29:02;21.00;99.90
37289;DHT22;23174;49.462;11.000;2022-08-27T09:31:19;21.10;99.90
37289;DHT22;23174;49.462;11.000;2022-08-27T09:33:21;21.00;99.90
37289;DHT22;23174;49.462;11.000;2022-08-27T09:35:24;20.90;99.90
37289;DHT22;23174;49.462;11.000;2022-08-27T09:37:29;20.90;99.90
37289;DHT22;23174;49.462;11.000;2022-08-27T09:40:21;21.00;99.90
37289;DHT22;23174;49.462;11.000;2022-08-27T09:41:54;21.10;99.90
37289;DHT22;23174;49.462;11.000;2022-08-27T09:44:08;21.10;99.90
37289;DHT22;23174;49.462;11.000;2022-08-27T09:46:23;21.10;99.90
37289;DHT22;23174;49.462;11.000;2022-08-27T09:48:32;21.10;99.90
37289;DHT22;23174;49.462;11.000;2022-08-27T09:50:52;21.20;99.90
37289;DHT22;23174;49.462;11.000;2022-08-27T09:52:57;21.30;99.90
37289;DHT22;23174;49.462;11.000;2022-08-27T09:55:12;21.30;99.90
37289;DHT22;23174;49.462;11.000;2022-08-27T09:57:30;21.30;99.90
37289;DHT22;23174;49.462;11.000;2022-08-27T09:59:34;21.30;99.90
37289;DHT22;23174;49.462;11.000;2022-08-27T10:02:23;21.20;99.90
37289;DHT22;23174;49.462;11.000;2022-08-27T10:04:09;21.30;99.90
37289;DHT22;23174;49.462;11.000;2022-08-27T10:06:10;21.40;99.90
37289;DHT22;23174;49.462;11.000;2022-08-27T10:08:23;21.20;99.90
37289;DHT22;23174;49.462;11.000;2022-08-27T10:11:10;21.20;99.90
37289;DHT22;23174;49.462;11.000;2022-08-27T10:13:22;21.40;99.90
37289;DHT22;23174;49.462;11.000;2022-08-27T10:15:29;21.40;99.90
37289;DHT22;23174;49.462;11.000;2022-08-27T10:20:05;21.40;99.90
37289;DHT22;23174;49.462;11.000;2022-08-27T10:22:13;21.50;99.90
37289;DHT22;23174;49.462;11.000;2022-08-27T10:29:45;21.40;99.90
37289;DHT22;23174;49.462;11.000;2022-08-27T10:32:29;21.40;99.90
37289;DHT22;23174;49.462;11.000;2022-08-27T10:37:13;21.80;99.90
37289;DHT22;23174;49.462;11.000;2022-08-27T10:42:27;21.90;99.90
37289;DHT22;23174;49.462;11.000;2022-08-27T10:52:14;22.20;99.90
37289;DHT22;23174;49.462;11.000;2022-08-27T10:54:28;22.20;99.90
37289;DHT22;23174;49.462;11.000;2022-08-27T10:56:47;22.30;99.90
37289;DHT22;23174;49.462;11.000;2022-08-27T11:01:11;22.20;99.90
37289;DHT22;23174;49.462;11.000;2022-08-27T11:03:21;22.20;99.90
37289;DHT22;23174;49.462;11.000;2022-08-27T11:05:44;22.10;99.90
37289;DHT22;23174;49.462;11.000;2022-08-27T11:10:35;22.20;99.90
37289;DHT22;23174;49.462;11.000;2022-08-27T11:12:43;22.00;99.90
37289;DHT22;23174;49.462;11.000;2022-08-27T11:17:23;22.10;99.90
37289;DHT22;23174;49.462;11.000;2022-08-27T11:19:41;22.20;99.90
37289;DHT22;23174;49.462;11.000;2022-08-27T11:22:07;22.20;99.90
37289;DHT22;23174;49.462;11.000;2022-08-27T11:24:21;22.30;99.90
37289;DHT22;23174;49.462;11.000;2022-08-27T11:26:22;22.30;99.90
37289;DHT22;23174;49.462;11.000;2022-08-27T11:28:44;22.50;99.90
37289;DHT22;23174;49.462;11.000;2022-08-27T11:30:59;22.50;99.90
37289;DHT22;23174;49.462;11.000;2022-08-27T11:33:42;22.60;99.90
37289;DHT22;23174;49.462;11.000;2022-08-27T11:38:17;22.50;99.90
37289;DHT22;23174;49.462;11.000;2022-08-27T11:43:12;22.50;99.90
37289;DHT22;23174;49.462;11.000;2022-08-27T11:45:29;22.60;99.90
37289;DHT22;23174;49.462;11.000;2022-08-27T11:47:30;22.60;99.90
37289;DHT22;23174;49.462;11.000;2022-08-27T11:49:45;22.60;99.90
37289;DHT22;23174;49.462;11.000;2022-08-27T11:51:56;22.60;99.90
37289;DHT22;23174;49.462;11.000;2022-08-27T11:54:00;22.70;99.90
37289;DHT22;23174;49.462;11.000;2022-08-27T11:56:20;22.60;99.90
37289;DHT22;23174;49.462;11.000;2022-08-27T11:58:40;22.70;99.90
37289;DHT22;23174;49.462;11.000;2022-08-27T12:00:42;22.80;99.90
37289;DHT22;23174;49.462;11.000;2022-08-27T12:03:06;22.90;99.90
37289;DHT22;23174;49.462;11.000;2022-08-27T12:05:21;23.00;99.90
37289;DHT22;23174;49.462;11.000;2022-08-27T12:07:33;23.10;99.90
37289;DHT22;23174;49.462;11.000;2022-08-27T12:12:08;23.10;99.90
37289;DHT22;23174;49.462;11.000;2022-08-27T12:16:46;23.20;99.90
37289;DHT22;23174;49.462;11.000;2022-08-27T12:26:31;23.20;99.90
37289;DHT22;23174;49.462;11.000;2022-08-27T12:28:32;23.20;99.90
37289;DHT22;23174;49.462;11.000;2022-08-27T12:30:36;23.20;99.90
37289;DHT22;23174;49.462;11.000;2022-08-27T12:32:45;23.30;99.90
37289;DHT22;23174;49.462;11.000;2022-08-27T12:35:13;23.20;99.90
37289;DHT22;23174;49.462;11.000;2022-08-27T12:37:12;23.20;99.90
37289;DHT22;23174;49.462;11.000;2022-08-27T12:39:19;23.30;99.90
37289;DHT22;23174;49.462;11.000;2022-08-27T12:41:32;23.20;99.90
37289;DHT22;23174;49.462;11.000;2022-08-27T12:43:38;23.10;99.90
37289;DHT22;23174;49.462;11.000;2022-08-27T12:45:49;23.20;99.90
37289;DHT22;23174;49.462;11.000;2022-08-27T12:47:52;23.10;99.90
37289;DHT22;23174;49.462;11.000;2022-08-27T12:49:57;23.40;99.90
37289;DHT22;23174;49.462;11.000;2022-08-27T12:52:00;23.30;99.90
37289;DHT22;23174;49.462;11.000;2022-08-27T12:56:58;23.20;99.90
37289;DHT22;23174;49.462;11.000;2022-08-27T13:03:41;23.30;99.90
37289;DHT22;23174;49.462;11.000;2022-08-27T13:05:46;23.20;99.90
37289;DHT22;23174;49.462;11.000;2022-08-27T13:07:50;23.10;99.90
37289;DHT22;23174;49.462;11.000;2022-08-27T13:09:51;23.30;99.90
37289;DHT22;23174;49.462;11.000;2022-08-27T13:11:52;23.40;99.90
37289;DHT22;23174;49.462;11.000;2022-08-27T13:14:34;23.30;99.90
37289;DHT22;23174;49.462;11.000;2022-08-27T13:16:37;23.20;99.90
37289;DHT22;23174;49.462;11.000;2022-08-27T13:18:39;23.40;99.90
37289;DHT22;23174;49.462;11.000;2022-08-27T13:20:39;23.30;99.90
37289;DHT22;23174;49.462;11.000;2022-08-27T13:22:40;23.30;99.90
37289;DHT22;23174;49.462;11.000;2022-08-27T13:24:48;23.30;99.90
37289;DHT22;23174;49.462;11.000;2022-08-27T13:26:51;23.30;99.90
37289;DHT22;23174;49.462;11.000;2022-08-27T13:28:53;23.10;99.90
37289;DHT22;23174;49.462;11.000;2022-08-27T13:30:54;23.10;99.90
37289;DHT22;23174;49.462;11.000;2022-08-27T13:32:55;23.10;99.90
37289;DHT22;23174;49.462;11.000;2022-08-27T13:34:58;23.10;99.90
37289;DHT22;23174;49.462;11.000;2022-08-27T13:37:03;23.20;99.90
37289;DHT22;23174;49.462;11.000;2022-08-27T13:39:06;23.30;99.90
37289;DHT22;23174;49.462;11.000;2022-08-27T13:43:20;23.10;99.90
37289;DHT22;23174;49.462;11.000;2022-08-27T13:45:26;23.30;99.90
37289;DHT22;23174;49.462;11.000;2022-08-27T13:47:28;23.40;99.90
37289;DHT22;23174;49.462;11.000;2022-08-27T13:49:31;23.50;99.90
37289;DHT22;23174;49.462;11.000;2022-08-27T13:51:34;23.50;99.90
37289;DHT22;23174;49.462;11.000;2022-08-27T13:53:35;23.50;99.90
37289;DHT22;23174;49.462;11.000;2022-08-27T13:55:56;23.50;99.90
37289;DHT22;23174;49.462;11.000;2022-08-27T13:57:57;23.50;99.90
37289;DHT22;23174;49.462;11.000;2022-08-27T14:00:30;23.40;99.90
37289;DHT22;23174;49.462;11.000;2022-08-27T14:02:31;23.50;99.90
37289;DHT22;23174;49.462;11.000;2022-08-27T14:04:41;23.50;99.90
37289;DHT22;23174;49.462;11.000;2022-08-27T14:06:45;23.40;99.90
37289;DHT22;23174;49.462;11.000;2022-08-27T14:08:46;23.30;99.90
37289;DHT22;23174;49.462;11.000;2022-08-27T14:10:57;23.40;99.90
37289;DHT22;23174;49.462;11.000;2022-08-27T14:13:11;23.30;99.90
37289;DHT22;23174;49.462;11.000;2022-08-27T14:15:41;23.50;99.90
37289;DHT22;23174;49.462;11.000;2022-08-27T14:17:42;23.40;99.90
37289;DHT22;23174;49.462;11.000;2022-08-27T14:19:45;23.60;99.90
37289;DHT22;23174;49.462;11.000;2022-08-27T14:21:47;23.60;99.90
37289;DHT22;23174;49.462;11.000;2022-08-27T14:23:47;23.70;99.90
37289;DHT22;23174;49.462;11.000;2022-08-27T14:25:50;23.70;99.90